sensor_id;sensor_type;location;lat;lon;timestamp;P1;durP1;ratioP1;P2;durP2;ratioP2
68050;SDS011;54839;51.364;7.246;2023-01-28T00:01:07;7.00;;;6.40;;
68050;SDS011;54839;51.364;7.246;2023-01-28T00:03:33;6.00;;;5.40;;
68050;SDS011;54839;51.364;7.246;2023-01-28T00:06:03;6.43;;;5.93;;
68050;SDS011;54839;51.364;7.246;2023-01-28T00:08:30;5.87;;;5.37;;
68050;SDS011;54839;51.364;7.246;2023-01-28T00:10:59;5.60;;;5.10;;
68050;SDS011;54839;51.364;7.246;2023-01-28T00:13:26;8.87;;;5.60;;
68050;SDS011;54839;51.364;7.246;2023-01-28T00:15:55;7.03;;;5.70;;
68050;SDS011;54839;51.364;7.246;2023-01-28T00:18:22;6.60;;;6.00;;
68050;SDS011;54839;51.364;7.246;2023-01-28T00:20:56;6.20;;;5.60;;
68050;SDS011;54839;51.364;7.246;2023-01-28T00:23:22;5.97;;;4.90;;
68050;SDS011;54839;51.364;7.246;2023-01-28T00:25:48;6.67;;;5.60;;
68050;SDS011;54839;51.364;7.246;2023-01-28T00:28:13;6.67;;;5.83;;
68050;SDS011;54839;51.364;7.246;2023-01-28T00:30:39;6.20;;;5.57;;
68050;SDS011;54839;51.364;7.246;2023-01-28T00:33:04;5.53;;;5.03;;
68050;SDS011;54839;51.364;7.246;2023-01-28T00:35:30;6.10;;;5.50;;
68050;SDS011;54839;51.364;7.246;2023-01-28T00:37:55;6.27;;;5.63;;
68050;SDS011;54839;51.364;7.246;2023-01-28T00:40:21;6.80;;;6.30;;
68050;SDS011;54839;51.364;7.246;2023-01-28T00:42:46;5.60;;;5.20;;
68050;SDS011;54839;51.364;7.246;2023-01-28T00:45:12;6.37;;;5.77;;
68050;SDS011;54839;51.364;7.246;2023-01-28T00:47:37;6.83;;;6.03;;
68050;SDS011;54839;51.364;7.246;2023-01-28T00:50:03;6.57;;;5.97;;
68050;SDS011;54839;51.364;7.246;2023-01-28T00:52:29;6.80;;;6.10;;
68050;SDS011;54839;51.364;7.246;2023-01-28T00:54:54;4.83;;;4.20;;
68050;SDS011;54839;51.364;7.246;2023-01-28T00:57:21;5.93;;;5.43;;
68050;SDS011;54839;51.364;7.246;2023-01-28T00:59:46;6.70;;;6.10;;
68050;SDS011;54839;51.364;7.246;2023-01-28T01:02:12;8.87;;;5.83;;
68050;SDS011;54839;51.364;7.246;2023-01-28T01:04:38;7.07;;;5.87;;
68050;SDS011;54839;51.364;7.246;2023-01-28T01:07:04;7.00;;;6.40;;
68050;SDS011;54839;51.364;7.246;2023-01-28T01:09:30;7.20;;;6.50;;
68050;SDS011;54839;51.364;7.246;2023-01-28T01:11:56;6.77;;;6.10;;
68050;SDS011;54839;51.364;7.246;2023-01-28T01:14:21;6.30;;;5.70;;
68050;SDS011;54839;51.364;7.246;2023-01-28T01:16:47;7.20;;;5.80;;
68050;SDS011;54839;51.364;7.246;2023-01-28T01:19:12;7.30;;;6.57;;
68050;SDS011;54839;51.364;7.246;2023-01-28T01:21:38;8.90;;;6.67;;
68050;SDS011;54839;51.364;7.246;2023-01-28T01:24:03;6.43;;;5.93;;
68050;SDS011;54839;51.364;7.246;2023-01-28T01:26:29;7.43;;;6.73;;
68050;SDS011;54839;51.364;7.246;2023-01-28T01:28:55;7.80;;;6.67;;
68050;SDS011;54839;51.364;7.246;2023-01-28T01:31:20;6.53;;;6.00;;
68050;SDS011;54839;51.364;7.246;2023-01-28T01:33:47;7.73;;;6.27;;
68050;SDS011;54839;51.364;7.246;2023-01-28T01:36:14;10.07;;;7.00;;
68050;SDS011;54839;51.364;7.246;2023-01-28T01:38:43;7.53;;;6.30;;
68050;SDS011;54839;51.364;7.246;2023-01-28T01:41:12;7.57;;;6.87;;
68050;SDS011;54839;51.364;7.246;2023-01-28T01:46:25;6.77;;;6.17;;
68050;SDS011;54839;51.364;7.246;2023-01-28T01:49:20;7.10;;;6.50;;
68050;SDS011;54839;51.364;7.246;2023-01-28T01:51:50;6.87;;;6.27;;
68050;SDS011;54839;51.364;7.246;2023-01-28T01:54:22;7.27;;;6.57;;
68050;SDS011;54839;51.364;7.246;2023-01-28T01:56:49;6.60;;;5.90;;
68050;SDS011;54839;51.364;7.246;2023-01-28T01:59:20;6.30;;;5.70;;
68050;SDS011;54839;51.364;7.246;2023-01-28T02:01:48;7.03;;;5.90;;
68050;SDS011;54839;51.364;7.246;2023-01-28T02:04:16;7.73;;;7.00;;
68050;SDS011;54839;51.364;7.246;2023-01-28T02:06:46;7.40;;;5.90;;
68050;SDS011;54839;51.364;7.246;2023-01-28T02:09:23;7.70;;;7.00;;
68050;SDS011;54839;51.364;7.246;2023-01-28T02:11:55;7.07;;;6.23;;
68050;SDS011;54839;51.364;7.246;2023-01-28T02:14:46;8.30;;;7.50;;
68050;SDS011;54839;51.364;7.246;2023-01-28T02:17:16;6.50;;;6.00;;
68050;SDS011;54839;51.364;7.246;2023-01-28T02:19:45;7.77;;;6.90;;
68050;SDS011;54839;51.364;7.246;2023-01-28T02:22:28;6.93;;;6.33;;
68050;SDS011;54839;51.364;7.246;2023-01-28T02:25:29;8.17;;;7.40;;
68050;SDS011;54839;51.364;7.246;2023-01-28T02:28:22;8.87;;;8.00;;
68050;SDS011;54839;51.364;7.246;2023-01-28T02:30:57;8.40;;;7.60;;
68050;SDS011;54839;51.364;7.246;2023-01-28T02:33:34;8.83;;;7.80;;
68050;SDS011;54839;51.364;7.246;2023-01-28T02:39:06;8.60;;;7.40;;
68050;SDS011;54839;51.364;7.246;2023-01-28T02:41:48;9.30;;;8.40;;
68050;SDS011;54839;51.364;7.246;2023-01-28T02:44:19;7.40;;;6.70;;
68050;SDS011;54839;51.364;7.246;2023-01-28T02:46:44;10.17;;;9.17;;
68050;SDS011;54839;51.364;7.246;2023-01-28T02:49:30;10.27;;;9.33;;
68050;SDS011;54839;51.364;7.246;2023-01-28T02:52:13;13.00;;;10.10;;
68050;SDS011;54839;51.364;7.246;2023-01-28T02:55:38;11.77;;;10.67;;
68050;SDS011;54839;51.364;7.246;2023-01-28T03:06:18;13.57;;;12.27;;
68050;SDS011;54839;51.364;7.246;2023-01-28T03:08:49;11.67;;;10.47;;
68050;SDS011;54839;51.364;7.246;2023-01-28T03:11:40;11.77;;;10.57;;
68050;SDS011;54839;51.364;7.246;2023-01-28T03:14:26;13.30;;;11.90;;
68050;SDS011;54839;51.364;7.246;2023-01-28T03:17:18;14.13;;;12.67;;
68050;SDS011;54839;51.364;7.246;2023-01-28T03:20:09;13.27;;;11.87;;
68050;SDS011;54839;51.364;7.246;2023-01-28T03:22:54;11.73;;;10.50;;
68050;SDS011;54839;51.364;7.246;2023-01-28T03:25:40;12.70;;;11.47;;
68050;SDS011;54839;51.364;7.246;2023-01-28T03:28:29;13.80;;;11.80;;
68050;SDS011;54839;51.364;7.246;2023-01-28T03:31:16;13.03;;;11.70;;
68050;SDS011;54839;51.364;7.246;2023-01-28T03:34:02;12.80;;;11.50;;
68050;SDS011;54839;51.364;7.246;2023-01-28T03:36:47;13.63;;;12.27;;
68050;SDS011;54839;51.364;7.246;2023-01-28T03:39:15;12.13;;;10.93;;
68050;SDS011;54839;51.364;7.246;2023-01-28T03:41:56;13.53;;;10.63;;
68050;SDS011;54839;51.364;7.246;2023-01-28T03:44:30;14.90;;;12.07;;
68050;SDS011;54839;51.364;7.246;2023-01-28T03:47:15;12.73;;;11.47;;
68050;SDS011;54839;51.364;7.246;2023-01-28T03:49:42;12.30;;;11.00;;
68050;SDS011;54839;51.364;7.246;2023-01-28T03:52:10;12.93;;;11.43;;
68050;SDS011;54839;51.364;7.246;2023-01-28T03:54:37;12.73;;;11.40;;
68050;SDS011;54839;51.364;7.246;2023-01-28T03:57:03;11.47;;;10.30;;
68050;SDS011;54839;51.364;7.246;2023-01-28T03:59:30;11.07;;;9.97;;
68050;SDS011;54839;51.364;7.246;2023-01-28T04:01:56;12.13;;;10.70;;
68050;SDS011;54839;51.364;7.246;2023-01-28T04:04:21;11.23;;;9.67;;
68050;SDS011;54839;51.364;7.246;2023-01-28T04:06:52;11.57;;;10.37;;
68050;SDS011;54839;51.364;7.246;2023-01-28T04:09:21;12.03;;;10.60;;
68050;SDS011;54839;51.364;7.246;2023-01-28T04:11:47;12.87;;;11.57;;
68050;SDS011;54839;51.364;7.246;2023-01-28T04:14:14;13.03;;;11.67;;
68050;SDS011;54839;51.364;7.246;2023-01-28T04:16:41;14.17;;;12.07;;
68050;SDS011;54839;51.364;7.246;2023-01-28T04:19:07;16.60;;;13.10;;
68050;SDS011;54839;51.364;7.246;2023-01-28T04:21:33;15.90;;;12.90;;
68050;SDS011;54839;51.364;7.246;2023-01-28T04:23:59;18.37;;;12.43;;
68050;SDS011;54839;51.364;7.246;2023-01-28T04:26:25;16.90;;;12.80;;
68050;SDS011;54839;51.364;7.246;2023-01-28T04:28:51;17.03;;;13.77;;
68050;SDS011;54839;51.364;7.246;2023-01-28T04:31:17;17.60;;;14.53;;
68050;SDS011;54839;51.364;7.246;2023-01-28T04:33:42;21.60;;;15.50;;
68050;SDS011;54839;51.364;7.246;2023-01-28T04:36:08;20.57;;;16.00;;
68050;SDS011;54839;51.364;7.246;2023-01-28T04:38:34;19.30;;;15.30;;
68050;SDS011;54839;51.364;7.246;2023-01-28T04:41:00;18.13;;;15.70;;
68050;SDS011;54839;51.364;7.246;2023-01-28T04:43:25;24.00;;;16.07;;
68050;SDS011;54839;51.364;7.246;2023-01-28T04:45:51;20.87;;;15.87;;
68050;SDS011;54839;51.364;7.246;2023-01-28T04:48:16;19.40;;;15.43;;
68050;SDS011;54839;51.364;7.246;2023-01-28T04:50:42;18.23;;;16.33;;
68050;SDS011;54839;51.364;7.246;2023-01-28T04:53:08;18.50;;;15.70;;
68050;SDS011;54839;51.364;7.246;2023-01-28T04:55:34;23.70;;;19.27;;
68050;SDS011;54839;51.364;7.246;2023-01-28T04:57:59;25.30;;;19.40;;
68050;SDS011;54839;51.364;7.246;2023-01-28T05:00:25;25.07;;;18.73;;
68050;SDS011;54839;51.364;7.246;2023-01-28T05:02:50;28.93;;;20.50;;
68050;SDS011;54839;51.364;7.246;2023-01-28T05:05:16;26.23;;;20.37;;
68050;SDS011;54839;51.364;7.246;2023-01-28T05:07:41;25.73;;;19.27;;
68050;SDS011;54839;51.364;7.246;2023-01-28T05:10:07;22.87;;;19.47;;
68050;SDS011;54839;51.364;7.246;2023-01-28T05:12:33;27.30;;;19.87;;
68050;SDS011;54839;51.364;7.246;2023-01-28T05:14:59;21.87;;;18.80;;
68050;SDS011;54839;51.364;7.246;2023-01-28T05:17:25;23.50;;;18.77;;
68050;SDS011;54839;51.364;7.246;2023-01-28T05:19:51;21.90;;;18.10;;
68050;SDS011;54839;51.364;7.246;2023-01-28T05:22:17;23.17;;;19.13;;
68050;SDS011;54839;51.364;7.246;2023-01-28T05:24:42;24.33;;;20.33;;
68050;SDS011;54839;51.364;7.246;2023-01-28T05:27:08;21.90;;;18.13;;
68050;SDS011;54839;51.364;7.246;2023-01-28T05:29:33;20.13;;;17.40;;
68050;SDS011;54839;51.364;7.246;2023-01-28T05:31:59;20.03;;;17.10;;
68050;SDS011;54839;51.364;7.246;2023-01-28T05:34:24;24.57;;;19.10;;
68050;SDS011;54839;51.364;7.246;2023-01-28T05:36:50;22.97;;;17.90;;
68050;SDS011;54839;51.364;7.246;2023-01-28T05:39:15;19.90;;;17.63;;
68050;SDS011;54839;51.364;7.246;2023-01-28T05:41:41;21.60;;;17.57;;
68050;SDS011;54839;51.364;7.246;2023-01-28T05:44:06;23.70;;;18.27;;
68050;SDS011;54839;51.364;7.246;2023-01-28T05:46:32;20.80;;;18.07;;
68050;SDS011;54839;51.364;7.246;2023-01-28T05:48:57;20.00;;;17.23;;
68050;SDS011;54839;51.364;7.246;2023-01-28T05:51:23;22.10;;;18.07;;
68050;SDS011;54839;51.364;7.246;2023-01-28T05:53:48;19.93;;;17.47;;
68050;SDS011;54839;51.364;7.246;2023-01-28T05:56:14;19.97;;;16.67;;
68050;SDS011;54839;51.364;7.246;2023-01-28T05:58:39;20.60;;;18.40;;
68050;SDS011;54839;51.364;7.246;2023-01-28T06:01:05;22.33;;;17.93;;
68050;SDS011;54839;51.364;7.246;2023-01-28T06:03:30;19.70;;;17.07;;
68050;SDS011;54839;51.364;7.246;2023-01-28T06:05:56;22.60;;;17.70;;
68050;SDS011;54839;51.364;7.246;2023-01-28T06:08:21;22.30;;;19.60;;
68050;SDS011;54839;51.364;7.246;2023-01-28T06:10:47;19.50;;;15.93;;
68050;SDS011;54839;51.364;7.246;2023-01-28T06:13:12;23.20;;;17.90;;
68050;SDS011;54839;51.364;7.246;2023-01-28T06:15:38;25.53;;;21.10;;
68050;SDS011;54839;51.364;7.246;2023-01-28T06:18:03;22.03;;;18.80;;
68050;SDS011;54839;51.364;7.246;2023-01-28T06:20:29;22.60;;;19.00;;
68050;SDS011;54839;51.364;7.246;2023-01-28T06:22:54;22.20;;;19.00;;
68050;SDS011;54839;51.364;7.246;2023-01-28T06:25:20;21.30;;;17.43;;
68050;SDS011;54839;51.364;7.246;2023-01-28T06:27:45;21.90;;;17.07;;
68050;SDS011;54839;51.364;7.246;2023-01-28T06:30:11;18.37;;;15.20;;
68050;SDS011;54839;51.364;7.246;2023-01-28T06:32:37;20.33;;;15.67;;
68050;SDS011;54839;51.364;7.246;2023-01-28T06:35:02;19.67;;;16.50;;
68050;SDS011;54839;51.364;7.246;2023-01-28T06:37:28;18.27;;;16.37;;
68050;SDS011;54839;51.364;7.246;2023-01-28T06:39:54;19.27;;;16.20;;
68050;SDS011;54839;51.364;7.246;2023-01-28T06:42:19;29.47;;;19.33;;
68050;SDS011;54839;51.364;7.246;2023-01-28T06:44:45;23.10;;;19.00;;
68050;SDS011;54839;51.364;7.246;2023-01-28T06:47:11;21.40;;;17.63;;
68050;SDS011;54839;51.364;7.246;2023-01-28T06:49:38;21.20;;;18.73;;
68050;SDS011;54839;51.364;7.246;2023-01-28T06:52:04;22.53;;;18.47;;
68050;SDS011;54839;51.364;7.246;2023-01-28T06:54:29;25.60;;;21.27;;
68050;SDS011;54839;51.364;7.246;2023-01-28T06:56:55;22.20;;;19.00;;
68050;SDS011;54839;51.364;7.246;2023-01-28T06:59:20;21.43;;;19.10;;
68050;SDS011;54839;51.364;7.246;2023-01-28T07:01:46;24.73;;;20.37;;
68050;SDS011;54839;51.364;7.246;2023-01-28T07:04:11;23.47;;;20.67;;
68050;SDS011;54839;51.364;7.246;2023-01-28T07:06:37;22.57;;;19.77;;
68050;SDS011;54839;51.364;7.246;2023-01-28T07:09:02;29.37;;;19.70;;
68050;SDS011;54839;51.364;7.246;2023-01-28T07:11:28;26.07;;;19.60;;
68050;SDS011;54839;51.364;7.246;2023-01-28T07:13:54;25.83;;;19.90;;
68050;SDS011;54839;51.364;7.246;2023-01-28T07:16:19;22.00;;;19.77;;
68050;SDS011;54839;51.364;7.246;2023-01-28T07:18:45;22.00;;;19.00;;
68050;SDS011;54839;51.364;7.246;2023-01-28T07:21:10;23.93;;;17.70;;
68050;SDS011;54839;51.364;7.246;2023-01-28T07:23:36;21.17;;;17.30;;
68050;SDS011;54839;51.364;7.246;2023-01-28T07:26:03;19.60;;;17.50;;
68050;SDS011;54839;51.364;7.246;2023-01-28T07:28:29;23.10;;;18.57;;
68050;SDS011;54839;51.364;7.246;2023-01-28T07:30:55;17.77;;;15.87;;
68050;SDS011;54839;51.364;7.246;2023-01-28T07:33:21;18.50;;;16.60;;
68050;SDS011;54839;51.364;7.246;2023-01-28T07:35:47;16.93;;;15.27;;
68050;SDS011;54839;51.364;7.246;2023-01-28T07:38:13;13.53;;;11.90;;
68050;SDS011;54839;51.364;7.246;2023-01-28T07:40:39;15.77;;;14.17;;
68050;SDS011;54839;51.364;7.246;2023-01-28T07:43:06;18.47;;;16.50;;
68050;SDS011;54839;51.364;7.246;2023-01-28T07:45:32;17.13;;;15.43;;
68050;SDS011;54839;51.364;7.246;2023-01-28T07:47:59;15.73;;;14.03;;
68050;SDS011;54839;51.364;7.246;2023-01-28T07:50:26;22.93;;;17.47;;
68050;SDS011;54839;51.364;7.246;2023-01-28T07:52:53;17.70;;;13.13;;
68050;SDS011;54839;51.364;7.246;2023-01-28T07:55:19;45.33;;;34.40;;
68050;SDS011;54839;51.364;7.246;2023-01-28T07:57:49;14.80;;;13.40;;
68050;SDS011;54839;51.364;7.246;2023-01-28T08:00:19;16.63;;;14.80;;
68050;SDS011;54839;51.364;7.246;2023-01-28T08:02:46;17.97;;;14.93;;
68050;SDS011;54839;51.364;7.246;2023-01-28T08:05:19;14.47;;;12.50;;
68050;SDS011;54839;51.364;7.246;2023-01-28T08:07:45;16.27;;;14.27;;
68050;SDS011;54839;51.364;7.246;2023-01-28T08:10:15;17.40;;;14.00;;
68050;SDS011;54839;51.364;7.246;2023-01-28T08:12:51;18.13;;;12.40;;
68050;SDS011;54839;51.364;7.246;2023-01-28T08:15:17;17.83;;;12.40;;
68050;SDS011;54839;51.364;7.246;2023-01-28T08:17:43;15.03;;;13.00;;
68050;SDS011;54839;51.364;7.246;2023-01-28T08:20:08;14.97;;;13.47;;
68050;SDS011;54839;51.364;7.246;2023-01-28T08:22:34;14.77;;;13.17;;
68050;SDS011;54839;51.364;7.246;2023-01-28T08:25:00;14.73;;;13.17;;
68050;SDS011;54839;51.364;7.246;2023-01-28T08:27:25;32.10;;;14.20;;
68050;SDS011;54839;51.364;7.246;2023-01-28T08:29:51;17.80;;;12.97;;
68050;SDS011;54839;51.364;7.246;2023-01-28T08:32:17;24.73;;;13.90;;
68050;SDS011;54839;51.364;7.246;2023-01-28T08:34:42;18.03;;;15.43;;
68050;SDS011;54839;51.364;7.246;2023-01-28T08:37:08;14.60;;;13.30;;
68050;SDS011;54839;51.364;7.246;2023-01-28T08:39:33;15.33;;;13.50;;
68050;SDS011;54839;51.364;7.246;2023-01-28T08:41:59;14.37;;;12.67;;
68050;SDS011;54839;51.364;7.246;2023-01-28T08:44:24;14.90;;;12.33;;
68050;SDS011;54839;51.364;7.246;2023-01-28T08:46:50;14.93;;;12.63;;
68050;SDS011;54839;51.364;7.246;2023-01-28T08:49:15;16.23;;;12.80;;
68050;SDS011;54839;51.364;7.246;2023-01-28T08:51:41;17.57;;;13.87;;
68050;SDS011;54839;51.364;7.246;2023-01-28T08:54:06;23.03;;;16.00;;
68050;SDS011;54839;51.364;7.246;2023-01-28T08:56:32;32.17;;;17.40;;
68050;SDS011;54839;51.364;7.246;2023-01-28T08:58:57;23.73;;;16.27;;
68050;SDS011;54839;51.364;7.246;2023-01-28T09:01:23;26.20;;;19.83;;
68050;SDS011;54839;51.364;7.246;2023-01-28T09:03:50;29.10;;;18.90;;
68050;SDS011;54839;51.364;7.246;2023-01-28T09:06:15;30.40;;;21.43;;
68050;SDS011;54839;51.364;7.246;2023-01-28T09:08:41;28.03;;;18.30;;
68050;SDS011;54839;51.364;7.246;2023-01-28T09:11:06;23.30;;;17.47;;
68050;SDS011;54839;51.364;7.246;2023-01-28T09:13:32;30.57;;;17.50;;
68050;SDS011;54839;51.364;7.246;2023-01-28T09:15:57;27.53;;;18.20;;
68050;SDS011;54839;51.364;7.246;2023-01-28T09:18:23;24.00;;;16.17;;
68050;SDS011;54839;51.364;7.246;2023-01-28T09:20:48;21.20;;;16.60;;
68050;SDS011;54839;51.364;7.246;2023-01-28T09:23:14;25.20;;;17.27;;
68050;SDS011;54839;51.364;7.246;2023-01-28T09:25:40;24.20;;;16.97;;
68050;SDS011;54839;51.364;7.246;2023-01-28T09:28:05;24.50;;;18.70;;
68050;SDS011;54839;51.364;7.246;2023-01-28T09:30:31;31.00;;;19.30;;
68050;SDS011;54839;51.364;7.246;2023-01-28T09:32:57;21.20;;;16.30;;
68050;SDS011;54839;51.364;7.246;2023-01-28T09:35:23;25.17;;;18.53;;
68050;SDS011;54839;51.364;7.246;2023-01-28T09:37:49;31.90;;;16.80;;
68050;SDS011;54839;51.364;7.246;2023-01-28T09:40:18;22.90;;;16.60;;
68050;SDS011;54839;51.364;7.246;2023-01-28T09:42:53;23.30;;;16.20;;
68050;SDS011;54839;51.364;7.246;2023-01-28T09:45:42;21.30;;;16.70;;
68050;SDS011;54839;51.364;7.246;2023-01-28T09:48:24;21.20;;;17.40;;
68050;SDS011;54839;51.364;7.246;2023-01-28T09:50:56;20.30;;;15.30;;
68050;SDS011;54839;51.364;7.246;2023-01-28T09:56:00;27.47;;;20.70;;
68050;SDS011;54839;51.364;7.246;2023-01-28T09:58:27;35.67;;;25.70;;
68050;SDS011;54839;51.364;7.246;2023-01-28T10:00:56;25.93;;;21.53;;
68050;SDS011;54839;51.364;7.246;2023-01-28T10:03:27;22.40;;;19.70;;
68050;SDS011;54839;51.364;7.246;2023-01-28T10:12:07;26.53;;;19.03;;
68050;SDS011;54839;51.364;7.246;2023-01-28T10:14:59;23.20;;;18.80;;
68050;SDS011;54839;51.364;7.246;2023-01-28T10:17:51;23.07;;;18.33;;
68050;SDS011;54839;51.364;7.246;2023-01-28T10:20:26;25.97;;;20.97;;
68050;SDS011;54839;51.364;7.246;2023-01-28T10:23:03;25.93;;;17.97;;
68050;SDS011;54839;51.364;7.246;2023-01-28T10:25:50;19.90;;;16.73;;
68050;SDS011;54839;51.364;7.246;2023-01-28T10:28:20;19.13;;;14.40;;
68050;SDS011;54839;51.364;7.246;2023-01-28T10:30:49;30.20;;;24.80;;
68050;SDS011;54839;51.364;7.246;2023-01-28T10:33:17;18.50;;;15.60;;
68050;SDS011;54839;51.364;7.246;2023-01-28T10:35:43;17.90;;;15.77;;
68050;SDS011;54839;51.364;7.246;2023-01-28T10:38:11;22.80;;;16.20;;
68050;SDS011;54839;51.364;7.246;2023-01-28T10:40:57;25.07;;;17.30;;
68050;SDS011;54839;51.364;7.246;2023-01-28T10:43:34;17.83;;;15.47;;
68050;SDS011;54839;51.364;7.246;2023-01-28T10:46:07;23.20;;;16.97;;
68050;SDS011;54839;51.364;7.246;2023-01-28T10:51:11;18.17;;;16.20;;
68050;SDS011;54839;51.364;7.246;2023-01-28T10:53:42;18.60;;;16.23;;
68050;SDS011;54839;51.364;7.246;2023-01-28T10:56:10;20.80;;;17.40;;
68050;SDS011;54839;51.364;7.246;2023-01-28T10:58:46;30.80;;;17.90;;
68050;SDS011;54839;51.364;7.246;2023-01-28T11:01:18;25.27;;;15.37;;
68050;SDS011;54839;51.364;7.246;2023-01-28T11:03:54;18.87;;;15.73;;
68050;SDS011;54839;51.364;7.246;2023-01-28T11:06:23;19.67;;;16.50;;
68050;SDS011;54839;51.364;7.246;2023-01-28T11:08:53;23.47;;;21.00;;
68050;SDS011;54839;51.364;7.246;2023-01-28T11:11:25;17.97;;;13.67;;
68050;SDS011;54839;51.364;7.246;2023-01-28T11:13:52;20.00;;;13.77;;
68050;SDS011;54839;51.364;7.246;2023-01-28T11:16:19;18.57;;;15.43;;
68050;SDS011;54839;51.364;7.246;2023-01-28T11:18:47;18.23;;;15.73;;
68050;SDS011;54839;51.364;7.246;2023-01-28T11:21:17;17.97;;;14.47;;
68050;SDS011;54839;51.364;7.246;2023-01-28T11:26:28;13.93;;;12.50;;
68050;SDS011;54839;51.364;7.246;2023-01-28T11:28:57;11.70;;;10.50;;
68050;SDS011;54839;51.364;7.246;2023-01-28T11:31:23;14.13;;;12.70;;
68050;SDS011;54839;51.364;7.246;2023-01-28T11:33:54;13.73;;;12.20;;
68050;SDS011;54839;51.364;7.246;2023-01-28T11:36:26;13.80;;;12.30;;
68050;SDS011;54839;51.364;7.246;2023-01-28T11:38:57;13.67;;;10.90;;
68050;SDS011;54839;51.364;7.246;2023-01-28T11:41:41;12.83;;;11.47;;
68050;SDS011;54839;51.364;7.246;2023-01-28T11:44:18;19.70;;;15.70;;
68050;SDS011;54839;51.364;7.246;2023-01-28T11:46:49;14.53;;;12.83;;
68050;SDS011;54839;51.364;7.246;2023-01-28T11:49:29;16.80;;;13.70;;
68050;SDS011;54839;51.364;7.246;2023-01-28T11:57:22;17.83;;;13.80;;
68050;SDS011;54839;51.364;7.246;2023-01-28T11:59:53;18.80;;;14.53;;
68050;SDS011;54839;51.364;7.246;2023-01-28T12:02:29;36.83;;;15.20;;
68050;SDS011;54839;51.364;7.246;2023-01-28T12:08:19;17.70;;;13.73;;
68050;SDS011;54839;51.364;7.246;2023-01-28T12:13:35;29.10;;;17.23;;
68050;SDS011;54839;51.364;7.246;2023-01-28T12:27:01;23.10;;;18.23;;
68050;SDS011;54839;51.364;7.246;2023-01-28T12:29:46;22.63;;;16.93;;
68050;SDS011;54839;51.364;7.246;2023-01-28T12:32:56;28.57;;;18.37;;
68050;SDS011;54839;51.364;7.246;2023-01-28T12:41:03;21.57;;;14.77;;
68050;SDS011;54839;51.364;7.246;2023-01-28T12:43:44;19.43;;;17.43;;
68050;SDS011;54839;51.364;7.246;2023-01-28T12:54:17;20.13;;;13.80;;
68050;SDS011;54839;51.364;7.246;2023-01-28T12:56:50;22.07;;;16.60;;
68050;SDS011;54839;51.364;7.246;2023-01-28T12:59:31;18.53;;;16.57;;
68050;SDS011;54839;51.364;7.246;2023-01-28T13:04:55;38.13;;;19.63;;
68050;SDS011;54839;51.364;7.246;2023-01-28T13:13:01;28.17;;;21.87;;
68050;SDS011;54839;51.364;7.246;2023-01-28T13:15:28;24.20;;;17.47;;
68050;SDS011;54839;51.364;7.246;2023-01-28T13:17:58;32.60;;;20.37;;
68050;SDS011;54839;51.364;7.246;2023-01-28T13:20:44;25.10;;;20.83;;
68050;SDS011;54839;51.364;7.246;2023-01-28T13:28:45;31.03;;;21.77;;
68050;SDS011;54839;51.364;7.246;2023-01-28T13:31:13;26.77;;;19.03;;
68050;SDS011;54839;51.364;7.246;2023-01-28T13:38:46;33.50;;;26.87;;
68050;SDS011;54839;51.364;7.246;2023-01-28T13:41:13;31.80;;;20.30;;
68050;SDS011;54839;51.364;7.246;2023-01-28T13:43:39;19.00;;;16.07;;
68050;SDS011;54839;51.364;7.246;2023-01-28T13:46:13;22.90;;;19.07;;
68050;SDS011;54839;51.364;7.246;2023-01-28T13:48:53;24.27;;;18.93;;
68050;SDS011;54839;51.364;7.246;2023-01-28T13:51:34;20.67;;;18.30;;
68050;SDS011;54839;51.364;7.246;2023-01-28T13:54:03;26.03;;;21.63;;
68050;SDS011;54839;51.364;7.246;2023-01-28T14:01:52;24.63;;;19.60;;
68050;SDS011;54839;51.364;7.246;2023-01-28T14:10:37;21.40;;;18.33;;
68050;SDS011;54839;51.364;7.246;2023-01-28T14:16:00;20.43;;;18.43;;
68050;SDS011;54839;51.364;7.246;2023-01-28T14:18:48;22.10;;;19.80;;
68050;SDS011;54839;51.364;7.246;2023-01-28T14:21:15;24.40;;;21.93;;
68050;SDS011;54839;51.364;7.246;2023-01-28T14:23:47;23.23;;;20.80;;
68050;SDS011;54839;51.364;7.246;2023-01-28T14:26:33;25.57;;;21.90;;
68050;SDS011;54839;51.364;7.246;2023-01-28T14:31:56;25.20;;;20.90;;
68050;SDS011;54839;51.364;7.246;2023-01-28T14:36:52;34.47;;;20.87;;
68050;SDS011;54839;51.364;7.246;2023-01-28T14:39:29;25.30;;;22.30;;
68050;SDS011;54839;51.364;7.246;2023-01-28T14:41:57;25.00;;;21.30;;
68050;SDS011;54839;51.364;7.246;2023-01-28T14:46:59;25.87;;;21.23;;
68050;SDS011;54839;51.364;7.246;2023-01-28T14:49:58;27.00;;;19.27;;
68050;SDS011;54839;51.364;7.246;2023-01-28T14:58:02;22.90;;;20.50;;
68050;SDS011;54839;51.364;7.246;2023-01-28T15:00:31;31.63;;;23.47;;
68050;SDS011;54839;51.364;7.246;2023-01-28T15:02:58;29.00;;;22.03;;
68050;SDS011;54839;51.364;7.246;2023-01-28T15:05:28;21.97;;;19.57;;
68050;SDS011;54839;51.364;7.246;2023-01-28T15:07:55;26.27;;;20.60;;
68050;SDS011;54839;51.364;7.246;2023-01-28T15:10:28;22.23;;;19.83;;
68050;SDS011;54839;51.364;7.246;2023-01-28T15:12:58;23.10;;;20.60;;
68050;SDS011;54839;51.364;7.246;2023-01-28T15:15:30;24.57;;;19.40;;
68050;SDS011;54839;51.364;7.246;2023-01-28T15:18:00;26.93;;;22.17;;
68050;SDS011;54839;51.364;7.246;2023-01-28T15:20:28;21.83;;;18.30;;
68050;SDS011;54839;51.364;7.246;2023-01-28T15:22:54;29.27;;;23.90;;
68050;SDS011;54839;51.364;7.246;2023-01-28T15:25:21;22.87;;;20.20;;
68050;SDS011;54839;51.364;7.246;2023-01-28T15:27:49;25.30;;;21.40;;
68050;SDS011;54839;51.364;7.246;2023-01-28T15:30:18;27.87;;;20.17;;
68050;SDS011;54839;51.364;7.246;2023-01-28T15:32:58;24.73;;;21.03;;
68050;SDS011;54839;51.364;7.246;2023-01-28T15:35:25;28.00;;;23.67;;
68050;SDS011;54839;51.364;7.246;2023-01-28T15:37:51;25.57;;;22.70;;
68050;SDS011;54839;51.364;7.246;2023-01-28T15:40:17;25.70;;;20.33;;
68050;SDS011;54839;51.364;7.246;2023-01-28T15:42:45;24.57;;;20.00;;
68050;SDS011;54839;51.364;7.246;2023-01-28T15:45:21;28.97;;;20.47;;
68050;SDS011;54839;51.364;7.246;2023-01-28T15:47:49;30.80;;;21.80;;
68050;SDS011;54839;51.364;7.246;2023-01-28T15:50:20;28.60;;;20.97;;
68050;SDS011;54839;51.364;7.246;2023-01-28T15:52:48;27.47;;;21.03;;
68050;SDS011;54839;51.364;7.246;2023-01-28T15:55:35;26.90;;;21.57;;
68050;SDS011;54839;51.364;7.246;2023-01-28T15:58:15;26.90;;;21.20;;
68050;SDS011;54839;51.364;7.246;2023-01-28T16:00:43;25.00;;;20.90;;
68050;SDS011;54839;51.364;7.246;2023-01-28T16:03:09;25.43;;;22.47;;
68050;SDS011;54839;51.364;7.246;2023-01-28T16:05:42;24.27;;;18.57;;
68050;SDS011;54839;51.364;7.246;2023-01-28T16:08:25;21.10;;;18.80;;
68050;SDS011;54839;51.364;7.246;2023-01-28T16:10:55;21.93;;;18.50;;
68050;SDS011;54839;51.364;7.246;2023-01-28T16:13:23;24.40;;;19.53;;
68050;SDS011;54839;51.364;7.246;2023-01-28T16:15:51;25.70;;;20.03;;
68050;SDS011;54839;51.364;7.246;2023-01-28T16:18:40;20.63;;;18.10;;
68050;SDS011;54839;51.364;7.246;2023-01-28T16:21:08;20.00;;;17.10;;
68050;SDS011;54839;51.364;7.246;2023-01-28T16:23:36;20.37;;;17.20;;
68050;SDS011;54839;51.364;7.246;2023-01-28T16:26:04;19.80;;;17.10;;
68050;SDS011;54839;51.364;7.246;2023-01-28T16:28:47;18.30;;;16.20;;
68050;SDS011;54839;51.364;7.246;2023-01-28T16:31:12;21.60;;;16.30;;
68050;SDS011;54839;51.364;7.246;2023-01-28T16:33:38;18.97;;;16.33;;